Time;durP1;ratioP1;P1;durP2;ratioP2;P2;SDS_P1;SDS_P2;PMS_P1;PMS_P2;Temp;Humidity;BMP_temperature;BMP_pressure;BME280_temperature;BME280_humidity;BME280_pressure;Samples;Min_cycle;Max_cycle;Signal;HPM_P1;HPM_P2
2022/01/16 00:01:44;;;;;;;1999.90;999.90;;;;;;;0.56;89.49;162548.22;5003449;28;20289;-69
2022/01/16 00:04:09;;;;;;;1999.90;999.90;;;;;;;0.42;89.81;162511.31;5003543;28;20103;-66
2022/01/16 00:06:38;;;;;;;1999.90;999.90;;;;;;;0.42;90.00;162511.31;5004276;28;20089;-68
2022/01/16 00:09:05;;;;;;;1999.90;999.90;;;;;;;0.46;89.90;162520.88;5006376;28;20410;-68
2022/01/16 00:11:32;;;;;;;1999.90;999.90;;;;;;;0.37;90.64;162496.28;4987138;28;20046;-69
2022/01/16 00:13:59;;;;;;;1999.90;999.90;;;;;;;0.30;91.31;162478.53;5005942;28;20081;-69
2022/01/16 00:16:25;;;;;;;1999.90;999.90;;;;;;;0.50;90.63;162531.81;5006122;28;20065;-69
2022/01/16 00:18:52;;;;;;;1999.90;999.90;;;;;;;0.50;89.96;162531.81;5006720;28;20057;-69
2022/01/16 00:21:21;;;;;;;1999.90;999.90;;;;;;;0.57;89.51;162549.63;5004159;28;20144;-69
2022/01/16 00:23:49;;;;;;;1999.90;999.90;;;;;;;0.57;89.97;162550.97;5004977;28;20053;-68
2022/01/16 00:26:16;;;;;;;1999.90;999.90;;;;;;;0.55;90.23;162545.47;5005061;28;20046;-69
2022/01/16 00:28:42;;;;;;;1999.90;999.90;;;;;;;0.45;90.07;162519.53;5009240;28;20077;-68
2022/01/16 00:31:09;;;;;;;1999.90;999.90;;;;;;;0.50;89.71;162531.81;5008393;28;20455;-67
2022/01/16 00:33:39;;;;;;;1999.90;999.90;;;;;;;0.35;89.60;162492.16;5008343;28;20046;-68
2022/01/16 00:36:06;;;;;;;1999.90;999.90;;;;;;;0.35;89.11;162493.53;5009667;28;20104;-68
2022/01/16 00:38:34;;;;;;;1999.90;999.90;;;;;;;0.30;89.21;162479.88;5005320;28;20521;-69
2022/01/16 00:41:01;;;;;;;1999.90;999.90;;;;;;;0.19;89.71;162448.41;5010476;28;20131;-68
2022/01/16 00:43:27;;;;;;;1999.90;999.90;;;;;;;0.27;90.03;162471.66;5016207;28;20085;-69
2022/01/16 00:45:54;;;;;;;1999.90;999.90;;;;;;;0.30;90.67;162479.88;5012716;28;20042;-69
2022/01/16 00:48:21;;;;;;;1999.90;999.90;;;;;;;0.38;90.11;162499.03;5011251;28;20054;-68
2022/01/16 00:50:47;;;;;;;1999.90;999.90;;;;;;;0.39;90.44;162501.72;5015846;28;20049;-68
2022/01/16 00:53:14;;;;;;;1999.90;999.90;;;;;;;0.37;90.96;162496.28;5008555;28;20108;-68
2022/01/16 00:55:41;;;;;;;1999.90;999.90;;;;;;;0.43;90.59;162512.66;5008560;28;20057;-68
2022/01/16 00:58:07;;;;;;;1999.90;999.90;;;;;;;0.20;90.70;162452.53;5008684;28;20077;-69
2022/01/16 01:00:34;;;;;;;1999.90;999.90;;;;;;;-0.19;92.93;162348.63;5010267;28;20498;-68
2022/01/16 01:03:01;;;;;;;1999.90;999.90;;;;;;;-0.07;92.63;162381.41;5005661;28;20073;-68
2022/01/16 01:05:28;;;;;;;1999.90;999.90;;;;;;;0.18;91.76;162447.06;5002897;28;20081;-68
2022/01/16 01:07:55;;;;;;;1999.90;999.90;;;;;;;0.16;91.61;162441.56;5019506;28;20073;-68
2022/01/16 01:10:33;;;;;;;1999.90;999.90;;;;;;;0.01;92.70;162401.91;5010919;28;20439;-68
2022/01/16 01:13:10;;;;;;;1999.90;999.90;;;;;;;0.18;92.38;162447.06;5006277;28;20084;-68
2022/01/16 01:15:46;;;;;;;1999.90;999.90;;;;;;;0.20;92.71;162452.53;5007538;28;20077;-69
2022/01/16 01:18:14;;;;;;;1999.90;999.90;;;;;;;0.28;91.99;162473.03;5008392;28;20064;-68
2022/01/16 01:20:42;;;;;;;1999.90;999.90;;;;;;;0.08;93.04;162419.72;5009914;28;20103;-68
2022/01/16 01:23:10;;;;;;;1999.90;999.90;;;;;;;0.08;92.97;162419.72;5008782;28;20073;-68
2022/01/16 01:25:38;;;;;;;1999.90;999.90;;;;;;;0.12;92.67;162430.63;5008253;28;20540;-68
2022/01/16 01:28:07;;;;;;;1999.90;999.90;;;;;;;0.22;92.97;162456.63;5008236;28;20050;-68
2022/01/16 01:30:34;;;;;;;1999.90;999.90;;;;;;;0.32;92.33;162485.31;5009520;28;20176;-68
2022/01/16 01:33:01;;;;;;;1999.90;999.90;;;;;;;0.41;91.97;162507.22;5006649;28;20045;-68
2022/01/16 01:35:28;;;;;;;1999.90;999.90;;;;;;;0.06;91.90;162414.22;5008267;28;20088;-68
2022/01/16 01:37:55;;;;;;;1999.90;999.90;;;;;;;0.29;91.60;162477.13;5006912;28;20042;-68
2022/01/16 01:40:24;;;;;;;1999.90;999.90;;;;;;;0.29;91.09;162477.13;5009690;28;20069;-68
2022/01/16 01:51:24;;;;;;;1999.90;999.90;;;;;;;0.18;93.72;162447.06;5014391;28;20141;-68
2022/01/16 01:53:53;;;;;;;1999.90;999.90;;;;;;;0.10;92.79;162425.16;5006758;28;20041;-69
2022/01/16 01:56:22;;;;;;;1999.90;999.90;;;;;;;-0.17;93.66;162354.06;5007624;28;20332;-68
2022/01/16 01:58:50;;;;;;;1999.90;999.90;;;;;;;-0.21;94.09;162343.13;5009296;28;20054;-68
2022/01/16 02:01:17;;;;;;;1999.90;999.90;;;;;;;0.00;94.12;162399.22;5010136;28;20049;-69
2022/01/16 02:03:45;;;;;;;1999.90;999.90;;;;;;;0.16;93.21;162441.56;5006892;28;20484;-68
2022/01/16 02:06:20;;;;;;;1999.90;999.90;;;;;;;0.19;93.35;162449.75;5008714;28;20135;-68
2022/01/16 02:08:56;;;;;;;1999.90;999.90;;;;;;;0.13;93.26;162434.72;5007585;28;20041;-68
2022/01/16 02:11:27;;;;;;;1999.90;999.90;;;;;;;-0.04;93.52;162388.28;5002540;28;20088;-68
2022/01/16 02:14:01;;;;;;;1999.90;999.90;;;;;;;0.13;93.91;162434.72;5008870;28;20057;-68
2022/01/16 02:35:43;;;;;;;1999.90;999.90;;;;;;;0.10;94.41;162425.16;5005547;28;20073;-68
2022/01/16 02:38:10;;;;;;;1999.90;999.90;;;;;;;0.28;93.61;162474.41;5007670;28;20096;-68
2022/01/16 02:40:41;;;;;;;1999.90;999.90;;;;;;;0.30;93.40;162479.88;5006083;28;20085;-68
2022/01/16 02:43:07;;;;;;;1999.90;999.90;;;;;;;0.32;94.14;162485.31;5005942;28;20099;-68
2022/01/16 02:45:37;;;;;;;1999.90;999.90;;;;;;;0.35;94.32;162493.53;5009045;28;20412;-68
2022/01/16 02:48:06;;;;;;;1999.90;999.90;;;;;;;0.20;94.71;162451.16;5007384;28;20042;-69
2022/01/16 02:50:34;;;;;;;1999.90;999.90;;;;;;;0.53;94.11;162540.03;5007888;28;20054;-68
2022/01/16 02:53:07;;;;;;;1999.90;999.90;;;;;;;0.67;93.48;162578.34;5006546;28;20081;-69
2022/01/16 02:55:33;;;;;;;1999.90;999.90;;;;;;;0.70;93.41;162585.19;5006769;28;20291;-68
2022/01/16 02:58:00;;;;;;;1999.90;999.90;;;;;;;0.76;92.92;162601.59;5005047;28;20069;-68
2022/01/16 03:00:26;;;;;;;1999.90;999.90;;;;;;;0.67;92.78;162578.34;5007674;28;20049;-69
2022/01/16 03:02:53;;;;;;;1999.90;999.90;;;;;;;0.74;92.87;162594.75;5006211;28;20050;-69
2022/01/16 03:05:20;;;;;;;1999.90;999.90;;;;;;;0.58;92.81;162553.72;5006534;28;20062;-68
2022/01/16 03:07:46;;;;;;;1999.90;999.90;;;;;;;0.61;93.13;162561.94;5004532;28;20137;-68
2022/01/16 03:10:53;;;;;;;1999.90;999.90;;;;;;;0.62;92.69;162563.28;5006758;28;20096;-68
2022/01/16 03:13:21;;;;;;;1999.90;999.90;;;;;;;0.38;93.53;162499.03;4997788;28;20096;-68
2022/01/16 03:15:51;;;;;;;1999.90;999.90;;;;;;;0.52;92.96;162538.69;5011081;28;20089;-68
2022/01/16 03:23:33;;;;;;;1999.90;999.90;;;;;;;0.45;92.78;162518.16;5006172;28;20138;-68
2022/01/16 03:26:00;;;;;;;1999.90;999.90;;;;;;;0.39;92.93;162501.72;5007035;28;20042;-68
2022/01/16 03:28:27;;;;;;;1999.90;999.90;;;;;;;0.19;93.65;162449.75;5006155;28;20426;-68
2022/01/16 03:30:54;;;;;;;1999.90;999.90;;;;;;;0.23;93.77;162460.72;5006636;28;20070;-68
2022/01/16 03:33:21;;;;;;;1999.90;999.90;;;;;;;0.13;93.96;162433.38;5007888;28;20060;-68
2022/01/16 03:35:48;;;;;;;1999.90;999.90;;;;;;;0.12;94.22;162430.63;5007241;28;20050;-68
2022/01/16 03:38:15;;;;;;;1999.90;999.90;;;;;;;-0.15;94.81;162358.19;5007108;28;20100;-68
2022/01/16 03:40:42;;;;;;;1999.90;999.90;;;;;;;0.05;94.62;162411.50;5006803;28;20099;-69
2022/01/16 03:43:14;;;;;;;1999.90;999.90;;;;;;;0.17;94.58;162444.31;5005034;28;20469;-69
2022/01/16 03:45:47;;;;;;;1999.90;999.90;;;;;;;0.28;93.78;162473.03;5006143;28;20077;-69
2022/01/16 03:48:15;;;;;;;1999.90;999.90;;;;;;;0.23;93.90;162460.72;5007425;28;20160;-68
2022/01/16 03:50:41;;;;;;;1999.90;999.90;;;;;;;0.28;93.57;162474.41;5007122;28;20073;-69
2022/01/16 03:53:08;;;;;;;1999.90;999.90;;;;;;;0.46;93.35;162520.88;5006573;28;20083;-69
2022/01/16 03:55:35;;;;;;;1999.90;999.90;;;;;;;0.30;92.63;162479.88;5005145;28;20081;-68
2022/01/16 03:58:02;;;;;;;1999.90;999.90;;;;;;;0.29;93.44;162477.13;5001116;28;20042;-68
2022/01/16 04:00:29;;;;;;;1999.90;999.90;;;;;;;0.19;93.39;162449.75;5005738;28;20078;-68
2022/01/16 04:02:56;;;;;;;1999.90;999.90;;;;;;;0.05;93.90;162412.88;5009755;28;20061;-69
2022/01/16 04:05:23;;;;;;;1999.90;999.90;;;;;;;0.13;93.75;162433.38;5008714;28;20050;-68
2022/01/16 04:07:50;;;;;;;1999.90;999.90;;;;;;;-0.16;94.10;162356.81;4991633;28;20104;-68
2022/01/16 04:10:16;;;;;;;1999.90;999.90;;;;;;;-0.02;94.36;162395.06;5008827;28;20662;-68
2022/01/16 04:12:45;;;;;;;1999.90;999.90;;;;;;;-0.08;94.26;162377.31;5009162;28;20081;-68
2022/01/16 04:17:39;;;;;;;1999.90;999.90;;;;;;;-0.07;93.83;162380.06;5021127;28;20049;-68
2022/01/16 04:20:06;;;;;;;1999.90;999.90;;;;;;;0.04;93.65;162408.78;5006589;28;20108;-69
2022/01/16 04:22:33;;;;;;;1999.90;999.90;;;;;;;-0.03;93.13;162390.97;5009932;28;20100;-68
2022/01/16 04:24:59;;;;;;;1999.90;999.90;;;;;;;-0.24;94.33;162334.94;5008435;28;20074;-69
2022/01/16 04:27:26;;;;;;;1999.90;999.90;;;;;;;0.06;93.54;162415.63;5010120;28;20100;-68
2022/01/16 04:29:52;;;;;;;1999.90;999.90;;;;;;;-0.25;94.40;162333.59;5011074;28;20046;-68
2022/01/16 04:32:20;;;;;;;1999.90;999.90;;;;;;;-0.25;95.25;162333.59;5009693;28;20073;-67
2022/01/16 04:34:47;;;;;;;1999.90;999.90;;;;;;;-0.36;95.55;162304.88;5009953;28;20108;-67
2022/01/16 04:37:14;;;;;;;1999.90;999.90;;;;;;;-0.28;95.63;162325.38;5008930;28;20141;-69
2022/01/16 04:39:48;;;;;;;1999.90;999.90;;;;;;;-0.16;95.29;162355.44;5007798;28;20454;-68
2022/01/16 04:45:01;;;;;;;1999.90;999.90;;;;;;;0.13;94.86;162434.72;5007173;28;20050;-68
2022/01/16 04:47:28;;;;;;;1999.90;999.90;;;;;;;-0.01;94.83;162397.81;5009996;28;20104;-68
2022/01/16 04:49:55;;;;;;;1999.90;999.90;;;;;;;0.09;94.52;162422.41;5009373;28;20379;-68
2022/01/16 04:52:21;;;;;;;1999.90;999.90;;;;;;;0.00;94.92;162399.22;5008079;28;20108;-68
2022/01/16 04:54:48;;;;;;;1999.90;999.90;;;;;;;-0.39;95.53;162296.69;5008743;28;20362;-68
2022/01/16 04:57:16;;;;;;;1999.90;999.90;;;;;;;-0.17;95.58;162352.72;5008702;28;20406;-68
2022/01/16 04:59:43;;;;;;;1999.90;999.90;;;;;;;-0.32;96.77;162313.09;5008026;28;20053;-68
2022/01/16 05:02:09;;;;;;;1999.90;999.90;;;;;;;-0.38;96.90;162298.03;5008877;28;20100;-68
2022/01/16 05:04:36;;;;;;;1999.90;999.90;;;;;;;-0.42;96.50;162288.44;5007131;28;20383;-68
2022/01/16 05:07:03;;;;;;;1999.90;999.90;;;;;;;-0.15;96.64;162359.53;5008400;28;20066;-68
2022/01/16 05:09:29;;;;;;;1999.90;999.90;;;;;;;-0.10;96.03;162371.88;5011403;28;20449;-68
2022/01/16 05:11:58;;;;;;;1999.90;999.90;;;;;;;-0.13;96.06;162365.03;5016354;28;20123;-68
2022/01/16 05:17:10;;;;;;;1999.90;999.90;;;;;;;-0.60;97.14;162239.28;5009116;28;20057;-67
2022/01/16 05:19:37;;;;;;;1999.90;999.90;;;;;;;-0.39;97.92;162296.69;5009043;28;20050;-68
2022/01/16 05:22:04;;;;;;;1999.90;999.90;;;;;;;-0.46;97.03;162277.56;5007153;28;20045;-68
2022/01/16 05:24:33;;;;;;;1999.90;999.90;;;;;;;-0.45;97.40;162280.25;5005873;28;20163;-68
2022/01/16 05:27:01;;;;;;;1999.90;999.90;;;;;;;0.03;96.01;162407.41;5007265;28;20073;-68
2022/01/16 05:29:27;;;;;;;1999.90;999.90;;;;;;;-0.28;97.43;162324.00;5008414;28;20045;-68
2022/01/16 05:31:54;;;;;;;1999.90;999.90;;;;;;;-0.21;96.93;162344.53;5010550;28;20104;-68
2022/01/16 05:34:23;;;;;;;1999.90;999.90;;;;;;;-0.37;97.28;162300.78;5008150;28;20060;-68
2022/01/16 05:36:50;;;;;;;1999.90;999.90;;;;;;;-0.43;97.48;162284.34;5007751;28;20077;-68
2022/01/16 05:39:16;;;;;;;1999.90;999.90;;;;;;;-0.63;98.74;162231.06;5008694;28;20054;-68
2022/01/16 05:41:43;;;;;;;1999.90;999.90;;;;;;;-0.28;97.80;162324.00;5009292;28;20458;-68
2022/01/16 05:44:09;;;;;;;1999.90;999.90;;;;;;;-0.23;96.90;162339.03;5007864;28;20329;-68
2022/01/16 05:46:36;;;;;;;1999.90;999.90;;;;;;;-0.25;97.13;162333.59;5009331;28;20050;-69
2022/01/16 05:49:03;;;;;;;1999.90;999.90;;;;;;;-0.20;96.79;162347.22;5007720;28;20042;-68
2022/01/16 05:51:29;;;;;;;1999.90;999.90;;;;;;;-0.40;98.12;162292.59;5008748;28;20066;-68
2022/01/16 05:53:56;;;;;;;1999.90;999.90;;;;;;;-0.13;97.09;162365.03;5008065;28;20108;-68
2022/01/16 05:56:23;;;;;;;1999.90;999.90;;;;;;;-0.39;97.58;162296.69;5007108;28;20045;-68
2022/01/16 05:58:50;;;;;;;1999.90;999.90;;;;;;;-0.44;98.20;162283.00;5008615;28;20068;-69
2022/01/16 06:01:17;;;;;;;1999.90;999.90;;;;;;;-0.36;98.04;162303.50;5008037;28;20315;-68
2022/01/16 06:03:44;;;;;;;1999.90;999.90;;;;;;;-0.40;98.43;162293.94;5008075;28;20045;-68
2022/01/16 06:06:10;;;;;;;1999.90;999.90;;;;;;;-0.36;98.61;162304.88;5012045;28;20057;-69
2022/01/16 06:08:38;;;;;;;1999.90;999.90;;;;;;;-0.44;98.19;162283.00;5012896;28;20112;-69
2022/01/16 06:11:05;;;;;;;1999.90;999.90;;;;;;;-0.79;99.17;162190.09;5008902;28;20045;-68
2022/01/16 06:13:31;;;;;;;1999.90;999.90;;;;;;;-0.41;99.43;162291.19;5009456;28;20112;-69
2022/01/16 06:15:58;;;;;;;1999.90;999.90;;;;;;;-0.78;99.14;162192.81;5006157;28;20437;-68
2022/01/16 06:18:25;;;;;;;1999.90;999.90;;;;;;;-0.76;99.70;162198.31;5008416;28;20259;-68
2022/01/16 06:20:51;;;;;;;1999.90;999.90;;;;;;;-0.67;99.68;162221.53;5008143;28;20478;-68
2022/01/16 06:23:18;;;;;;;1999.90;999.90;;;;;;;-0.70;99.42;162213.28;5007701;28;20057;-68
2022/01/16 06:25:44;;;;;;;1999.90;999.90;;;;;;;-0.37;98.51;162302.16;4999645;28;20054;-69
2022/01/16 06:28:11;;;;;;;1999.90;999.90;;;;;;;-0.29;97.68;162322.63;5007408;28;20430;-68
2022/01/16 06:30:38;;;;;;;1999.90;999.90;;;;;;;-0.38;97.32;162298.03;5007358;28;20108;-69
2022/01/16 06:33:06;;;;;;;1999.90;999.90;;;;;;;-0.43;98.15;162284.34;5007305;28;20041;-68
2022/01/16 06:35:33;;;;;;;1999.90;999.90;;;;;;;-0.29;98.05;162321.28;5007287;28;20131;-69
2022/01/16 06:37:59;;;;;;;1999.90;999.90;;;;;;;-0.75;99.14;162199.66;5007677;28;20577;-69
2022/01/16 06:40:26;;;;;;;1999.90;999.90;;;;;;;-0.42;99.29;162288.44;5007683;28;20100;-69
2022/01/16 06:42:52;;;;;;;1999.90;999.90;;;;;;;-0.44;98.52;162281.66;5008512;28;20054;-68
2022/01/16 06:45:19;;;;;;;1999.90;999.90;;;;;;;-1.00;99.88;162132.69;5007147;28;20354;-68
2022/01/16 06:47:46;;;;;;;1999.90;999.90;;;;;;;-0.79;100.00;162190.09;5007902;28;20095;-69
2022/01/16 06:50:13;;;;;;;1999.90;999.90;;;;;;;-0.62;100.00;162233.81;5008918;28;20092;-68
2022/01/16 06:52:39;;;;;;;1999.90;999.90;;;;;;;-0.31;98.75;162315.78;5007564;28;20139;-69
2022/01/16 06:55:06;;;;;;;1999.90;999.90;;;;;;;-0.42;99.67;162287.09;5009297;28;20062;-69
2022/01/16 06:57:33;;;;;;;1999.90;999.90;;;;;;;-0.60;99.70;162239.28;5007060;28;20088;-68
2022/01/16 06:59:59;;;;;;;1999.90;999.90;;;;;;;-0.69;100.00;162216.03;5007236;28;20091;-68
2022/01/16 07:02:27;;;;;;;1999.90;999.90;;;;;;;-0.88;100.00;162165.47;5008480;28;20057;-68
2022/01/16 07:04:54;;;;;;;1999.90;999.90;;;;;;;-0.93;100.00;162153.19;5007797;28;20046;-69
2022/01/16 07:07:20;;;;;;;1999.90;999.90;;;;;;;-0.74;100.00;162202.41;5008283;28;20077;-69
2022/01/16 07:09:47;;;;;;;1999.90;999.90;;;;;;;-0.73;100.00;162206.50;5009235;28;20380;-69
2022/01/16 07:12:14;;;;;;;1999.90;999.90;;;;;;;-0.64;100.00;162228.31;5006035;28;20100;-69
2022/01/16 07:14:40;;;;;;;1999.90;999.90;;;;;;;-0.59;100.00;162242.03;5006833;28;20054;-69
2022/01/16 07:17:07;;;;;;;1999.90;999.90;;;;;;;-0.33;98.98;162311.69;5009936;28;20104;-69
2022/01/16 07:19:33;;;;;;;1999.90;999.90;;;;;;;-0.53;99.23;162258.41;5008912;28;20044;-69
2022/01/16 07:22:00;;;;;;;1999.90;999.90;;;;;;;-0.52;99.31;162261.16;5007671;28;20461;-69
2022/01/16 07:24:27;;;;;;;1999.90;999.90;;;;;;;-0.42;99.88;162287.09;4991238;28;20089;-69
2022/01/16 07:26:54;;;;;;;1999.90;999.90;;;;;;;-0.52;100.00;162259.75;5007418;28;20081;-69
2022/01/16 07:29:21;;;;;;;1999.90;999.90;;;;;;;-0.51;99.54;162263.84;5007410;28;20051;-68
2022/01/16 07:31:47;;;;;;;1999.90;999.90;;;;;;;-0.27;99.15;162326.72;5008271;28;20084;-69
2022/01/16 07:34:14;;;;;;;1999.90;999.90;;;;;;;-0.37;99.00;162302.16;5015596;28;20050;-69
2022/01/16 07:36:41;;;;;;;1999.90;999.90;;;;;;;-0.66;99.93;162222.88;5011492;28;20053;-69
2022/01/16 07:39:07;;;;;;;1999.90;999.90;;;;;;;-0.92;100.00;162155.94;5011490;28;20046;-68
2022/01/16 07:41:34;;;;;;;1999.90;999.90;;;;;;;-0.41;100.00;162289.84;5011110;28;20108;-68
2022/01/16 07:44:01;;;;;;;1999.90;999.90;;;;;;;-0.37;99.08;162302.16;5010939;28;20096;-68
2022/01/16 07:46:28;;;;;;;1999.90;999.90;;;;;;;-0.44;100.00;162283.00;5011181;28;20054;-68
2022/01/16 07:48:55;;;;;;;1999.90;999.90;;;;;;;-0.10;99.59;162371.88;5012639;28;20044;-68
2022/01/16 07:51:22;;;;;;;1999.90;999.90;;;;;;;0.02;98.23;162403.31;5022946;28;20104;-68
2022/01/16 07:53:49;;;;;;;1999.90;999.90;;;;;;;0.14;98.07;162436.13;5010248;28;20081;-68
2022/01/16 07:56:15;;;;;;;1999.90;999.90;;;;;;;0.51;96.17;162534.59;5010202;28;20081;-68
2022/01/16 07:58:42;;;;;;;1999.90;999.90;;;;;;;0.20;96.81;162452.53;5014649;28;20071;-69
2022/01/16 08:01:09;;;;;;;1999.90;999.90;;;;;;;0.20;97.30;162451.16;5015605;28;20088;-68
2022/01/16 08:03:36;;;;;;;1999.90;999.90;;;;;;;-0.05;98.42;162385.53;5010224;28;20084;-69
2022/01/16 08:06:02;;;;;;;1999.90;999.90;;;;;;;-0.04;98.45;162389.63;5012497;28;20082;-68
2022/01/16 08:08:29;;;;;;;1999.90;999.90;;;;;;;0.26;97.08;162468.91;5009397;28;20085;-68
2022/01/16 08:10:56;;;;;;;1999.90;999.90;;;;;;;0.30;96.62;162478.53;5011058;28;20057;-69
2022/01/16 08:13:22;;;;;;;1999.90;999.90;;;;;;;0.15;97.19;162440.22;5010713;28;20049;-68
2022/01/16 08:15:49;;;;;;;1999.90;999.90;;;;;;;0.43;97.09;162514.06;5010988;28;20583;-68
2022/01/16 08:18:16;;;;;;;1999.90;999.90;;;;;;;0.28;96.41;162473.03;5011284;28;20045;-68
2022/01/16 08:20:43;;;;;;;1999.90;999.90;;;;;;;0.33;96.13;162488.06;5011254;28;20111;-68
2022/01/16 08:23:09;;;;;;;1999.90;999.90;;;;;;;0.69;95.07;162582.44;5009122;28;20104;-69
2022/01/16 08:25:36;;;;;;;1999.90;999.90;;;;;;;0.45;95.57;162518.16;5008942;28;20439;-68
2022/01/16 08:28:03;;;;;;;1999.90;999.90;;;;;;;0.60;95.67;162559.19;5009347;28;20331;-68
2022/01/16 08:30:29;;;;;;;1999.90;999.90;;;;;;;0.71;94.98;162587.91;5009876;28;20050;-68
2022/01/16 08:32:56;;;;;;;1999.90;999.90;;;;;;;0.44;95.84;162516.78;5012851;28;20100;-68
2022/01/16 08:35:22;;;;;;;1999.90;999.90;;;;;;;0.62;94.95;162564.63;5015612;28;20394;-68
2022/01/16 08:37:49;;;;;;;1999.90;999.90;;;;;;;1.16;93.94;162708.31;5010067;28;20498;-68
2022/01/16 08:40:16;;;;;;;1999.90;999.90;;;;;;;0.95;93.32;162652.19;5009760;28;20107;-68
2022/01/16 08:42:42;;;;;;;1999.90;999.90;;;;;;;0.58;94.25;162553.72;5009312;28;20085;-69
2022/01/16 08:45:10;;;;;;;1999.90;999.90;;;;;;;0.96;94.59;162654.94;5009799;28;20431;-68
2022/01/16 08:47:37;;;;;;;1999.90;999.90;;;;;;;0.85;93.65;162624.88;5011691;28;20050;-69
2022/01/16 08:50:06;;;;;;;1999.90;999.90;;;;;;;0.88;93.50;162634.41;5010548;28;20100;-69
2022/01/16 08:52:33;;;;;;;1999.90;999.90;;;;;;;0.86;93.82;162628.97;5010351;28;20089;-69
2022/01/16 08:55:01;;;;;;;1999.90;999.90;;;;;;;1.20;92.90;162717.88;5009910;28;20431;-68
2022/01/16 08:57:28;;;;;;;1999.90;999.90;;;;;;;1.36;91.88;162760.31;5009414;28;20507;-68
2022/01/16 08:59:55;;;;;;;1999.90;999.90;;;;;;;1.19;92.35;162715.13;5011143;28;20431;-68
2022/01/16 09:02:21;;;;;;;1999.90;999.90;;;;;;;1.30;92.63;162743.91;5009240;28;20050;-68
2022/01/16 09:04:48;;;;;;;1999.90;999.90;;;;;;;1.52;91.53;162804.09;5008567;28;20049;-68
2022/01/16 09:07:15;;;;;;;1999.90;999.90;;;;;;;1.56;91.52;162813.66;5008554;28;20053;-68
2022/01/16 09:09:42;;;;;;;1999.90;999.90;;;;;;;1.54;91.37;162809.56;5006734;28;20042;-69
2022/01/16 09:12:10;;;;;;;1999.90;999.90;;;;;;;1.62;91.24;162828.72;5002795;28;20068;-68
2022/01/16 09:14:36;;;;;;;1999.90;999.90;;;;;;;1.61;91.29;162827.38;5010706;28;20049;-68
2022/01/16 09:17:03;;;;;;;1999.90;999.90;;;;;;;1.89;90.20;162901.25;5009458;28;20288;-69
2022/01/16 09:19:30;;;;;;;1999.90;999.90;;;;;;;1.91;89.19;162908.13;5008122;28;20110;-68
2022/01/16 09:21:56;;;;;;;1999.90;999.90;;;;;;;1.70;89.79;162850.66;5007093;28;20046;-68
2022/01/16 09:24:23;;;;;;;1999.90;999.90;;;;;;;1.46;90.32;162786.28;5008159;28;20096;-68
2022/01/16 09:26:50;;;;;;;1999.90;999.90;;;;;;;1.60;89.65;162824.63;5010563;28;20081;-68
2022/01/16 09:29:16;;;;;;;1999.90;999.90;;;;;;;1.52;89.07;162802.69;5010378;28;20053;-68
2022/01/16 09:31:43;;;;;;;1999.90;999.90;;;;;;;1.52;88.50;162802.69;5007009;28;20104;-69
2022/01/16 09:34:09;;;;;;;1999.90;999.90;;;;;;;1.76;87.32;162868.41;5009256;28;20111;-68
2022/01/16 09:36:37;;;;;;;1999.90;999.90;;;;;;;1.45;87.46;162783.59;5010741;28;20501;-69
2022/01/16 09:39:04;;;;;;;1999.90;999.90;;;;;;;1.78;86.96;162871.19;5008433;28;20046;-68
2022/01/16 09:41:30;;;;;;;1999.90;999.90;;;;;;;1.90;85.65;162904.00;5007362;28;20082;-69
2022/01/16 09:43:57;;;;;;;1999.90;999.90;;;;;;;1.55;85.29;162812.31;5010234;28;20053;-69
2022/01/16 09:46:24;;;;;;;1999.90;999.90;;;;;;;1.83;86.39;162886.25;5017379;28;20607;-68
2022/01/16 09:48:50;;;;;;;1999.90;999.90;;;;;;;1.89;85.18;162901.25;5008442;28;20045;-69
2022/01/16 09:51:17;;;;;;;1999.90;999.90;;;;;;;2.34;84.90;163021.78;5008840;28;20081;-68
2022/01/16 09:53:47;;;;;;;1999.90;999.90;;;;;;;2.19;84.23;162980.66;5007693;28;20423;-68
2022/01/16 09:56:13;;;;;;;1999.90;999.90;;;;;;;1.99;83.42;162928.66;5008773;28;20049;-69
2022/01/16 09:58:41;;;;;;;1999.90;999.90;;;;;;;2.19;84.05;162982.06;5008390;28;20196;-69
2022/01/16 10:01:08;;;;;;;1999.90;999.90;;;;;;;2.06;83.03;162947.81;5008453;28;20046;-69
2022/01/16 10:03:46;;;;;;;1999.90;999.90;;;;;;;1.84;83.56;162887.59;5008371;28;20046;-68
2022/01/16 10:06:21;;;;;;;1999.90;999.90;;;;;;;2.26;83.03;163001.25;5007738;28;20346;-68
2022/01/16 10:08:50;;;;;;;1999.90;999.90;;;;;;;1.98;82.42;162925.94;5007305;28;20401;-68
2022/01/16 10:11:39;;;;;;;1999.90;999.90;;;;;;;2.23;80.98;162991.63;5005325;28;20070;-69
2022/01/16 10:14:36;;;;;;;1999.90;999.90;;;;;;;2.38;80.32;163031.34;5006847;28;20514;-69
2022/01/16 10:17:11;;;;;;;1999.90;999.90;;;;;;;2.53;77.94;163072.47;5006658;28;20521;-70
2022/01/16 10:19:38;;;;;;;1999.90;999.90;;;;;;;2.26;77.52;162999.84;5009319;28;20418;-70
2022/01/16 10:22:11;;;;;;;1999.90;999.90;;;;;;;2.53;78.33;163072.47;5004795;28;20119;-69
2022/01/16 10:24:39;;;;;;;1999.90;999.90;;;;;;;2.79;77.71;163142.28;5013043;28;20076;-69
2022/01/16 10:27:09;;;;;;;1999.90;999.90;;;;;;;2.56;76.20;163079.28;5012160;28;20065;-67
2022/01/16 10:29:37;;;;;;;1999.90;999.90;;;;;;;2.42;77.29;163042.31;5005643;28;20333;-67
2022/01/16 10:32:24;;;;;;;1999.90;999.90;;;;;;;2.32;77.64;163014.91;5007412;28;20070;-68
2022/01/16 10:35:20;;;;;;;1999.90;999.90;;;;;;;2.34;76.93;163021.78;5010606;28;20088;-68
2022/01/16 10:37:51;;;;;;;1999.90;999.90;;;;;;;2.23;78.02;162991.63;5002799;28;20045;-68
2022/01/16 10:40:22;;;;;;;1999.90;999.90;;;;;;;2.57;76.97;163082.03;5015935;28;20443;-68
2022/01/16 10:42:55;;;;;;;1999.90;999.90;;;;;;;2.46;76.31;163054.63;5006584;28;20192;-68
2022/01/16 10:45:24;;;;;;;1999.90;999.90;;;;;;;2.86;76.60;163158.72;5007348;28;20137;-67
2022/01/16 10:47:54;;;;;;;1999.90;999.90;;;;;;;2.56;79.50;163080.69;5008105;28;20052;-68
2022/01/16 10:50:36;;;;;;;1999.90;999.90;;;;;;;2.80;76.71;163143.69;4998085;28;20386;-68
2022/01/16 10:53:12;;;;;;;1999.90;999.90;;;;;;;2.95;75.59;163183.44;5007810;28;20054;-68
2022/01/16 10:55:49;;;;;;;1999.90;999.90;;;;;;;2.63;77.82;163098.47;5012806;28;20467;-68
2022/01/16 10:58:21;;;;;;;1999.90;999.90;;;;;;;2.67;77.80;163109.44;5009067;28;20057;-67
2022/01/16 11:00:52;;;;;;;1999.90;999.90;;;;;;;2.68;79.11;163112.19;5007663;28;20600;-67
2022/01/16 11:03:20;;;;;;;1999.90;999.90;;;;;;;2.77;78.18;163136.84;5002007;28;20330;-68
2022/01/16 11:05:49;;;;;;;1999.90;999.90;;;;;;;2.49;80.06;163061.50;5011638;28;20319;-67
2022/01/16 11:08:18;;;;;;;1999.90;999.90;;;;;;;2.52;80.53;163068.38;5008273;28;20081;-67
2022/01/16 11:10:49;;;;;;;1999.90;999.90;;;;;;;2.92;78.89;163175.22;5007329;28;21829;-68
2022/01/16 11:13:19;;;;;;;1999.90;999.90;;;;;;;3.10;78.68;163223.16;5015473;28;20053;-67
2022/01/16 11:15:49;;;;;;;1999.90;999.90;;;;;;;3.09;78.85;163221.75;5018905;28;20083;-67
2022/01/16 11:18:16;;;;;;;1999.90;999.90;;;;;;;3.17;77.72;163243.72;5005526;28;20158;-67
2022/01/16 11:20:53;;;;;;;1999.90;999.90;;;;;;;3.03;78.75;163205.31;5004330;28;20081;-67
2022/01/16 11:25:56;;;;;;;1999.90;999.90;;;;;;;3.31;78.82;163279.34;5010139;28;20117;-67
2022/01/16 11:28:23;;;;;;;1999.90;999.90;;;;;;;3.15;79.22;163236.84;5005022;28;20061;-66
2022/01/16 11:30:53;;;;;;;1999.90;999.90;;;;;;;2.96;80.26;163186.13;5009022;28;20049;-67
2022/01/16 11:33:22;;;;;;;1999.90;999.90;;;;;;;3.24;79.40;163260.16;5003214;28;20085;-67
2022/01/16 11:36:01;;;;;;;1999.90;999.90;;;;;;;3.31;79.17;163279.34;5005415;28;20108;-66
2022/01/16 11:38:35;;;;;;;1999.90;999.90;;;;;;;2.94;79.88;163180.66;5003698;28;20050;-68
2022/01/16 11:41:32;;;;;;;1999.90;999.90;;;;;;;2.89;81.00;163166.94;5006270;28;20076;-67